sensor_id;sensor_type;location;lat;lon;timestamp;P1;durP1;ratioP1;P2;durP2;ratioP2
77524;SDS011;66638;50.050;21.124;2024-02-23T00:01:49;4.10;;;1.70;;
77524;SDS011;66638;50.050;21.124;2024-02-23T00:04:37;3.30;;;1.90;;
77524;SDS011;66638;50.050;21.124;2024-02-23T00:07:24;3.20;;;1.80;;
77524;SDS011;66638;50.050;21.124;2024-02-23T00:10:11;2.40;;;1.30;;
77524;SDS011;66638;50.050;21.124;2024-02-23T00:12:59;2.80;;;2.00;;
77524;SDS011;66638;50.050;21.124;2024-02-23T00:15:47;3.10;;;1.90;;
77524;SDS011;66638;50.050;21.124;2024-02-23T00:18:35;3.20;;;1.60;;
77524;SDS011;66638;50.050;21.124;2024-02-23T00:24:09;2.50;;;1.60;;
77524;SDS011;66638;50.050;21.124;2024-02-23T00:26:56;2.50;;;1.50;;
77524;SDS011;66638;50.050;21.124;2024-02-23T00:29:44;2.80;;;1.90;;
77524;SDS011;66638;50.050;21.124;2024-02-23T00:32:31;2.80;;;2.00;;
77524;SDS011;66638;50.050;21.124;2024-02-23T00:35:19;3.90;;;2.20;;
77524;SDS011;66638;50.050;21.124;2024-02-23T00:38:06;3.30;;;2.10;;
77524;SDS011;66638;50.050;21.124;2024-02-23T00:40:54;3.20;;;2.10;;
77524;SDS011;66638;50.050;21.124;2024-02-23T00:43:41;4.00;;;1.90;;
77524;SDS011;66638;50.050;21.124;2024-02-23T00:46:29;4.30;;;2.20;;
77524;SDS011;66638;50.050;21.124;2024-02-23T00:49:16;3.20;;;2.10;;
77524;SDS011;66638;50.050;21.124;2024-02-23T00:52:04;3.00;;;1.70;;
77524;SDS011;66638;50.050;21.124;2024-02-23T00:54:51;1.90;;;1.40;;
77524;SDS011;66638;50.050;21.124;2024-02-23T00:57:38;3.30;;;1.90;;
77524;SDS011;66638;50.050;21.124;2024-02-23T01:00:26;3.00;;;2.00;;
77524;SDS011;66638;50.050;21.124;2024-02-23T01:03:13;3.20;;;1.70;;
77524;SDS011;66638;50.050;21.124;2024-02-23T01:06:00;2.90;;;2.00;;
77524;SDS011;66638;50.050;21.124;2024-02-23T01:08:48;2.40;;;1.70;;
77524;SDS011;66638;50.050;21.124;2024-02-23T01:11:35;3.30;;;2.30;;
77524;SDS011;66638;50.050;21.124;2024-02-23T01:14:22;3.10;;;1.90;;
77524;SDS011;66638;50.050;21.124;2024-02-23T01:17:10;2.60;;;1.70;;
77524;SDS011;66638;50.050;21.124;2024-02-23T01:19:57;3.40;;;2.20;;
77524;SDS011;66638;50.050;21.124;2024-02-23T01:22:44;3.60;;;1.90;;
77524;SDS011;66638;50.050;21.124;2024-02-23T01:25:31;2.30;;;1.70;;
77524;SDS011;66638;50.050;21.124;2024-02-23T01:28:21;3.40;;;2.20;;
77524;SDS011;66638;50.050;21.124;2024-02-23T01:31:09;3.00;;;2.00;;
77524;SDS011;66638;50.050;21.124;2024-02-23T01:33:57;3.40;;;2.00;;
77524;SDS011;66638;50.050;21.124;2024-02-23T01:36:44;3.10;;;2.10;;
77524;SDS011;66638;50.050;21.124;2024-02-23T01:39:32;2.80;;;1.90;;
77524;SDS011;66638;50.050;21.124;2024-02-23T01:42:19;3.10;;;1.80;;
77524;SDS011;66638;50.050;21.124;2024-02-23T01:45:07;3.90;;;2.10;;
77524;SDS011;66638;50.050;21.124;2024-02-23T01:47:55;3.80;;;2.10;;
77524;SDS011;66638;50.050;21.124;2024-02-23T01:50:42;3.30;;;2.10;;
77524;SDS011;66638;50.050;21.124;2024-02-23T01:53:30;3.00;;;2.00;;
77524;SDS011;66638;50.050;21.124;2024-02-23T01:56:17;3.10;;;2.40;;
77524;SDS011;66638;50.050;21.124;2024-02-23T01:59:05;3.90;;;2.20;;
77524;SDS011;66638;50.050;21.124;2024-02-23T02:01:53;5.80;;;2.80;;
77524;SDS011;66638;50.050;21.124;2024-02-23T02:04:40;3.40;;;2.30;;
77524;SDS011;66638;50.050;21.124;2024-02-23T02:07:27;4.30;;;2.40;;
77524;SDS011;66638;50.050;21.124;2024-02-23T02:10:14;4.70;;;2.90;;
77524;SDS011;66638;50.050;21.124;2024-02-23T02:15:50;4.70;;;2.80;;
77524;SDS011;66638;50.050;21.124;2024-02-23T02:18:37;3.90;;;2.70;;
77524;SDS011;66638;50.050;21.124;2024-02-23T02:21:24;4.50;;;2.40;;
77524;SDS011;66638;50.050;21.124;2024-02-23T02:24:12;4.10;;;2.20;;
77524;SDS011;66638;50.050;21.124;2024-02-23T02:26:59;5.90;;;4.00;;
77524;SDS011;66638;50.050;21.124;2024-02-23T02:29:46;4.20;;;2.40;;
77524;SDS011;66638;50.050;21.124;2024-02-23T02:32:35;5.40;;;3.00;;
77524;SDS011;66638;50.050;21.124;2024-02-23T02:35:22;3.70;;;2.40;;
77524;SDS011;66638;50.050;21.124;2024-02-23T02:38:10;3.30;;;2.30;;
77524;SDS011;66638;50.050;21.124;2024-02-23T02:40:58;4.00;;;2.60;;
77524;SDS011;66638;50.050;21.124;2024-02-23T02:43:47;2.60;;;1.70;;
77524;SDS011;66638;50.050;21.124;2024-02-23T02:46:34;3.40;;;2.10;;
77524;SDS011;66638;50.050;21.124;2024-02-23T02:49:21;3.80;;;2.60;;
77524;SDS011;66638;50.050;21.124;2024-02-23T02:54:56;2.90;;;1.70;;
77524;SDS011;66638;50.050;21.124;2024-02-23T02:57:43;3.60;;;2.20;;
77524;SDS011;66638;50.050;21.124;2024-02-23T03:00:31;2.50;;;1.70;;
77524;SDS011;66638;50.050;21.124;2024-02-23T03:03:18;3.80;;;2.00;;
77524;SDS011;66638;50.050;21.124;2024-02-23T03:08:53;3.60;;;2.30;;
77524;SDS011;66638;50.050;21.124;2024-02-23T03:14:27;3.60;;;2.50;;
77524;SDS011;66638;50.050;21.124;2024-02-23T03:20:02;3.70;;;2.40;;
77524;SDS011;66638;50.050;21.124;2024-02-23T03:22:52;3.20;;;2.10;;
77524;SDS011;66638;50.050;21.124;2024-02-23T03:25:39;2.90;;;2.00;;
77524;SDS011;66638;50.050;21.124;2024-02-23T03:31:14;3.90;;;2.40;;
77524;SDS011;66638;50.050;21.124;2024-02-23T03:36:50;3.90;;;2.50;;
77524;SDS011;66638;50.050;21.124;2024-02-23T03:39:37;3.60;;;2.40;;
77524;SDS011;66638;50.050;21.124;2024-02-23T03:42:25;3.90;;;2.20;;
77524;SDS011;66638;50.050;21.124;2024-02-23T03:45:13;3.50;;;2.10;;
77524;SDS011;66638;50.050;21.124;2024-02-23T03:48:01;3.40;;;2.30;;
77524;SDS011;66638;50.050;21.124;2024-02-23T03:50:51;4.50;;;2.50;;
77524;SDS011;66638;50.050;21.124;2024-02-23T03:53:38;3.30;;;2.30;;
77524;SDS011;66638;50.050;21.124;2024-02-23T03:56:25;5.10;;;2.80;;
77524;SDS011;66638;50.050;21.124;2024-02-23T03:59:12;3.10;;;2.20;;
77524;SDS011;66638;50.050;21.124;2024-02-23T04:02:00;4.10;;;2.60;;
77524;SDS011;66638;50.050;21.124;2024-02-23T04:04:47;4.30;;;2.50;;
77524;SDS011;66638;50.050;21.124;2024-02-23T04:07:35;2.90;;;2.20;;
77524;SDS011;66638;50.050;21.124;2024-02-23T04:10:23;5.20;;;2.70;;
77524;SDS011;66638;50.050;21.124;2024-02-23T04:16:00;3.50;;;2.40;;
77524;SDS011;66638;50.050;21.124;2024-02-23T04:18:48;3.10;;;2.30;;
77524;SDS011;66638;50.050;21.124;2024-02-23T04:21:35;5.70;;;2.20;;
77524;SDS011;66638;50.050;21.124;2024-02-23T04:24:23;3.20;;;2.00;;
77524;SDS011;66638;50.050;21.124;2024-02-23T04:29:57;5.00;;;2.70;;
77524;SDS011;66638;50.050;21.124;2024-02-23T04:35:31;4.80;;;2.50;;
77524;SDS011;66638;50.050;21.124;2024-02-23T04:41:06;4.00;;;2.40;;
77524;SDS011;66638;50.050;21.124;2024-02-23T04:43:54;3.90;;;2.60;;
77524;SDS011;66638;50.050;21.124;2024-02-23T04:46:49;4.30;;;2.50;;
77524;SDS011;66638;50.050;21.124;2024-02-23T04:49:37;4.20;;;2.50;;
77524;SDS011;66638;50.050;21.124;2024-02-23T04:52:24;4.00;;;2.80;;
77524;SDS011;66638;50.050;21.124;2024-02-23T04:55:11;3.40;;;2.30;;
77524;SDS011;66638;50.050;21.124;2024-02-23T04:57:59;3.90;;;2.30;;
77524;SDS011;66638;50.050;21.124;2024-02-23T05:00:46;5.20;;;2.30;;
77524;SDS011;66638;50.050;21.124;2024-02-23T05:03:33;5.30;;;2.30;;
77524;SDS011;66638;50.050;21.124;2024-02-23T05:06:21;4.60;;;2.60;;
77524;SDS011;66638;50.050;21.124;2024-02-23T05:11:56;5.50;;;3.60;;
77524;SDS011;66638;50.050;21.124;2024-02-23T05:14:43;3.60;;;2.10;;
77524;SDS011;66638;50.050;21.124;2024-02-23T05:17:31;3.10;;;2.20;;
77524;SDS011;66638;50.050;21.124;2024-02-23T05:20:18;3.50;;;2.60;;
77524;SDS011;66638;50.050;21.124;2024-02-23T05:25:52;3.80;;;2.50;;
77524;SDS011;66638;50.050;21.124;2024-02-23T05:28:40;4.00;;;1.90;;
77524;SDS011;66638;50.050;21.124;2024-02-23T05:34:36;3.20;;;2.30;;
77524;SDS011;66638;50.050;21.124;2024-02-23T05:37:24;4.30;;;2.70;;
77524;SDS011;66638;50.050;21.124;2024-02-23T05:40:11;4.40;;;2.60;;
77524;SDS011;66638;50.050;21.124;2024-02-23T05:42:59;5.60;;;3.00;;
77524;SDS011;66638;50.050;21.124;2024-02-23T05:45:46;4.10;;;3.10;;
77524;SDS011;66638;50.050;21.124;2024-02-23T05:48:33;4.70;;;2.40;;
77524;SDS011;66638;50.050;21.124;2024-02-23T05:51:20;5.00;;;3.10;;
77524;SDS011;66638;50.050;21.124;2024-02-23T05:54:08;3.70;;;2.90;;
77524;SDS011;66638;50.050;21.124;2024-02-23T05:56:55;5.40;;;3.00;;
77524;SDS011;66638;50.050;21.124;2024-02-23T05:59:42;4.00;;;2.70;;
77524;SDS011;66638;50.050;21.124;2024-02-23T06:02:30;6.20;;;2.60;;
77524;SDS011;66638;50.050;21.124;2024-02-23T06:05:17;3.70;;;2.40;;
77524;SDS011;66638;50.050;21.124;2024-02-23T06:10:52;3.20;;;2.40;;
77524;SDS011;66638;50.050;21.124;2024-02-23T06:13:39;4.10;;;2.50;;
77524;SDS011;66638;50.050;21.124;2024-02-23T06:16:26;3.70;;;2.30;;
77524;SDS011;66638;50.050;21.124;2024-02-23T06:19:14;5.10;;;2.60;;
77524;SDS011;66638;50.050;21.124;2024-02-23T06:22:02;4.30;;;2.70;;
77524;SDS011;66638;50.050;21.124;2024-02-23T06:24:51;3.70;;;2.40;;
77524;SDS011;66638;50.050;21.124;2024-02-23T06:27:39;3.90;;;2.70;;
77524;SDS011;66638;50.050;21.124;2024-02-23T06:30:26;4.80;;;2.60;;
77524;SDS011;66638;50.050;21.124;2024-02-23T06:33:13;3.20;;;2.30;;
77524;SDS011;66638;50.050;21.124;2024-02-23T06:36:00;4.60;;;2.60;;
77524;SDS011;66638;50.050;21.124;2024-02-23T06:38:53;4.40;;;2.60;;
77524;SDS011;66638;50.050;21.124;2024-02-23T06:41:40;3.80;;;2.30;;
77524;SDS011;66638;50.050;21.124;2024-02-23T06:44:28;3.20;;;2.40;;
77524;SDS011;66638;50.050;21.124;2024-02-23T06:47:15;5.50;;;2.70;;
77524;SDS011;66638;50.050;21.124;2024-02-23T06:50:03;4.20;;;2.70;;
77524;SDS011;66638;50.050;21.124;2024-02-23T06:52:52;4.50;;;2.70;;
77524;SDS011;66638;50.050;21.124;2024-02-23T06:55:40;4.50;;;2.70;;
77524;SDS011;66638;50.050;21.124;2024-02-23T06:58:28;5.30;;;2.80;;
77524;SDS011;66638;50.050;21.124;2024-02-23T07:01:15;4.90;;;3.60;;
77524;SDS011;66638;50.050;21.124;2024-02-23T07:04:03;3.70;;;2.50;;
77524;SDS011;66638;50.050;21.124;2024-02-23T07:06:50;3.30;;;2.20;;
77524;SDS011;66638;50.050;21.124;2024-02-23T07:09:37;3.60;;;2.40;;
77524;SDS011;66638;50.050;21.124;2024-02-23T07:12:25;3.70;;;2.70;;
77524;SDS011;66638;50.050;21.124;2024-02-23T07:15:14;4.00;;;2.60;;
77524;SDS011;66638;50.050;21.124;2024-02-23T07:18:02;3.80;;;3.40;;
77524;SDS011;66638;50.050;21.124;2024-02-23T07:20:49;3.70;;;2.30;;
77524;SDS011;66638;50.050;21.124;2024-02-23T07:26:23;3.70;;;2.50;;
77524;SDS011;66638;50.050;21.124;2024-02-23T07:29:12;3.20;;;2.30;;
77524;SDS011;66638;50.050;21.124;2024-02-23T07:31:59;5.40;;;2.40;;
77524;SDS011;66638;50.050;21.124;2024-02-23T07:34:47;4.10;;;2.50;;
77524;SDS011;66638;50.050;21.124;2024-02-23T07:37:34;3.70;;;2.40;;
77524;SDS011;66638;50.050;21.124;2024-02-23T07:40:22;4.00;;;2.00;;
77524;SDS011;66638;50.050;21.124;2024-02-23T07:45:59;4.20;;;2.50;;
77524;SDS011;66638;50.050;21.124;2024-02-23T07:48:46;3.70;;;2.40;;
77524;SDS011;66638;50.050;21.124;2024-02-23T07:51:35;2.50;;;1.90;;
77524;SDS011;66638;50.050;21.124;2024-02-23T07:54:22;3.90;;;2.40;;
77524;SDS011;66638;50.050;21.124;2024-02-23T07:57:09;3.60;;;2.40;;
77524;SDS011;66638;50.050;21.124;2024-02-23T07:59:57;3.30;;;1.80;;
77524;SDS011;66638;50.050;21.124;2024-02-23T08:02:44;6.00;;;2.50;;
77524;SDS011;66638;50.050;21.124;2024-02-23T08:05:33;3.40;;;1.90;;
77524;SDS011;66638;50.050;21.124;2024-02-23T08:08:20;2.90;;;1.90;;
77524;SDS011;66638;50.050;21.124;2024-02-23T08:11:10;3.50;;;2.10;;
77524;SDS011;66638;50.050;21.124;2024-02-23T08:13:58;4.00;;;2.30;;
77524;SDS011;66638;50.050;21.124;2024-02-23T08:16:45;2.60;;;1.60;;
77524;SDS011;66638;50.050;21.124;2024-02-23T08:19:32;3.30;;;1.90;;
77524;SDS011;66638;50.050;21.124;2024-02-23T08:22:20;2.30;;;1.60;;
77524;SDS011;66638;50.050;21.124;2024-02-23T08:25:07;2.60;;;2.00;;
77524;SDS011;66638;50.050;21.124;2024-02-23T08:27:55;2.30;;;1.50;;
77524;SDS011;66638;50.050;21.124;2024-02-23T08:30:43;3.20;;;2.00;;
77524;SDS011;66638;50.050;21.124;2024-02-23T08:33:32;1.70;;;1.30;;
77524;SDS011;66638;50.050;21.124;2024-02-23T08:36:20;2.80;;;2.10;;
77524;SDS011;66638;50.050;21.124;2024-02-23T08:39:07;3.30;;;2.50;;
77524;SDS011;66638;50.050;21.124;2024-02-23T08:41:56;2.80;;;1.90;;
77524;SDS011;66638;50.050;21.124;2024-02-23T08:44:44;3.20;;;2.10;;
77524;SDS011;66638;50.050;21.124;2024-02-23T08:47:31;2.60;;;1.70;;
77524;SDS011;66638;50.050;21.124;2024-02-23T08:50:21;2.00;;;1.50;;
77524;SDS011;66638;50.050;21.124;2024-02-23T08:53:08;2.50;;;1.50;;
77524;SDS011;66638;50.050;21.124;2024-02-23T08:55:55;2.50;;;1.40;;
77524;SDS011;66638;50.050;21.124;2024-02-23T08:58:43;2.60;;;1.60;;
77524;SDS011;66638;50.050;21.124;2024-02-23T09:01:31;3.30;;;1.90;;
77524;SDS011;66638;50.050;21.124;2024-02-23T09:04:18;4.40;;;2.60;;
77524;SDS011;66638;50.050;21.124;2024-02-23T09:07:06;3.40;;;2.10;;
77524;SDS011;66638;50.050;21.124;2024-02-23T09:09:57;2.30;;;1.80;;
77524;SDS011;66638;50.050;21.124;2024-02-23T09:12:44;2.70;;;1.60;;
77524;SDS011;66638;50.050;21.124;2024-02-23T09:15:32;4.10;;;2.30;;
77524;SDS011;66638;50.050;21.124;2024-02-23T09:18:20;2.80;;;1.90;;
77524;SDS011;66638;50.050;21.124;2024-02-23T09:23:54;2.70;;;1.80;;
77524;SDS011;66638;50.050;21.124;2024-02-23T09:26:42;2.90;;;1.50;;
77524;SDS011;66638;50.050;21.124;2024-02-23T09:29:29;4.40;;;1.80;;
77524;SDS011;66638;50.050;21.124;2024-02-23T09:32:17;2.50;;;1.60;;
77524;SDS011;66638;50.050;21.124;2024-02-23T09:35:04;4.40;;;2.80;;
77524;SDS011;66638;50.050;21.124;2024-02-23T09:37:53;3.70;;;2.20;;
77524;SDS011;66638;50.050;21.124;2024-02-23T09:40:41;2.00;;;1.40;;
77524;SDS011;66638;50.050;21.124;2024-02-23T09:43:29;3.30;;;2.10;;
77524;SDS011;66638;50.050;21.124;2024-02-23T09:46:19;3.30;;;1.90;;
77524;SDS011;66638;50.050;21.124;2024-02-23T09:49:06;2.40;;;1.70;;
77524;SDS011;66638;50.050;21.124;2024-02-23T09:51:56;2.80;;;1.60;;
77524;SDS011;66638;50.050;21.124;2024-02-23T09:54:43;3.90;;;1.90;;
77524;SDS011;66638;50.050;21.124;2024-02-23T10:00:17;2.50;;;1.60;;
77524;SDS011;66638;50.050;21.124;2024-02-23T10:03:05;3.60;;;1.90;;
77524;SDS011;66638;50.050;21.124;2024-02-23T10:08:40;4.30;;;1.70;;
77524;SDS011;66638;50.050;21.124;2024-02-23T10:11:27;2.80;;;1.70;;
77524;SDS011;66638;50.050;21.124;2024-02-23T10:14:15;3.00;;;1.70;;
77524;SDS011;66638;50.050;21.124;2024-02-23T10:17:02;2.90;;;1.80;;
77524;SDS011;66638;50.050;21.124;2024-02-23T10:19:53;3.70;;;1.90;;
77524;SDS011;66638;50.050;21.124;2024-02-23T10:22:40;3.00;;;2.00;;
77524;SDS011;66638;50.050;21.124;2024-02-23T10:25:28;2.90;;;1.80;;
77524;SDS011;66638;50.050;21.124;2024-02-23T10:28:17;2.80;;;1.70;;
77524;SDS011;66638;50.050;21.124;2024-02-23T10:31:12;3.40;;;2.00;;
77524;SDS011;66638;50.050;21.124;2024-02-23T10:36:46;2.80;;;2.00;;
77524;SDS011;66638;50.050;21.124;2024-02-23T10:39:36;3.50;;;1.90;;
77524;SDS011;66638;50.050;21.124;2024-02-23T10:42:24;3.70;;;1.80;;
77524;SDS011;66638;50.050;21.124;2024-02-23T10:45:16;2.40;;;1.70;;
77524;SDS011;66638;50.050;21.124;2024-02-23T10:48:06;5.50;;;4.10;;
77524;SDS011;66638;50.050;21.124;2024-02-23T10:50:56;2.80;;;1.90;;
77524;SDS011;66638;50.050;21.124;2024-02-23T10:53:46;4.30;;;1.80;;
77524;SDS011;66638;50.050;21.124;2024-02-23T10:56:34;2.90;;;2.20;;
77524;SDS011;66638;50.050;21.124;2024-02-23T10:59:26;9.10;;;4.50;;
77524;SDS011;66638;50.050;21.124;2024-02-23T11:02:16;7.80;;;3.20;;
77524;SDS011;66638;50.050;21.124;2024-02-23T11:05:05;3.70;;;2.20;;
77524;SDS011;66638;50.050;21.124;2024-02-23T11:07:56;3.10;;;2.10;;
77524;SDS011;66638;50.050;21.124;2024-02-23T11:10:50;4.00;;;1.80;;
77524;SDS011;66638;50.050;21.124;2024-02-23T11:13:39;3.40;;;1.90;;
77524;SDS011;66638;50.050;21.124;2024-02-23T11:16:27;4.40;;;2.20;;
77524;SDS011;66638;50.050;21.124;2024-02-23T11:19:14;3.30;;;2.00;;
77524;SDS011;66638;50.050;21.124;2024-02-23T11:22:03;5.30;;;3.40;;
77524;SDS011;66638;50.050;21.124;2024-02-23T11:24:50;3.70;;;2.30;;
77524;SDS011;66638;50.050;21.124;2024-02-23T11:27:38;4.40;;;2.20;;
77524;SDS011;66638;50.050;21.124;2024-02-23T11:30:29;3.40;;;1.90;;
77524;SDS011;66638;50.050;21.124;2024-02-23T11:33:28;4.00;;;2.20;;
77524;SDS011;66638;50.050;21.124;2024-02-23T11:39:23;3.30;;;1.90;;
77524;SDS011;66638;50.050;21.124;2024-02-23T11:42:11;3.40;;;2.00;;
77524;SDS011;66638;50.050;21.124;2024-02-23T11:44:59;7.70;;;4.10;;
77524;SDS011;66638;50.050;21.124;2024-02-23T11:47:47;3.50;;;2.20;;
77524;SDS011;66638;50.050;21.124;2024-02-23T11:50:35;3.70;;;2.30;;
77524;SDS011;66638;50.050;21.124;2024-02-23T11:53:22;3.20;;;2.10;;
77524;SDS011;66638;50.050;21.124;2024-02-23T11:56:11;3.50;;;2.00;;
77524;SDS011;66638;50.050;21.124;2024-02-23T11:58:59;3.40;;;2.40;;
77524;SDS011;66638;50.050;21.124;2024-02-23T12:01:48;4.20;;;1.80;;
77524;SDS011;66638;50.050;21.124;2024-02-23T12:07:22;4.90;;;2.50;;
77524;SDS011;66638;50.050;21.124;2024-02-23T12:10:09;4.30;;;2.30;;
77524;SDS011;66638;50.050;21.124;2024-02-23T12:12:57;4.00;;;2.40;;
77524;SDS011;66638;50.050;21.124;2024-02-23T12:15:46;6.80;;;3.50;;
77524;SDS011;66638;50.050;21.124;2024-02-23T12:18:35;5.50;;;2.60;;
77524;SDS011;66638;50.050;21.124;2024-02-23T12:21:26;3.20;;;2.30;;
77524;SDS011;66638;50.050;21.124;2024-02-23T12:24:14;2.70;;;1.60;;
77524;SDS011;66638;50.050;21.124;2024-02-23T12:27:01;3.40;;;2.10;;
77524;SDS011;66638;50.050;21.124;2024-02-23T12:29:52;3.50;;;2.30;;
77524;SDS011;66638;50.050;21.124;2024-02-23T12:32:39;3.10;;;1.80;;
77524;SDS011;66638;50.050;21.124;2024-02-23T12:35:26;4.00;;;2.00;;
77524;SDS011;66638;50.050;21.124;2024-02-23T12:38:14;3.40;;;2.20;;
77524;SDS011;66638;50.050;21.124;2024-02-23T12:41:02;3.90;;;2.50;;
77524;SDS011;66638;50.050;21.124;2024-02-23T12:43:49;3.60;;;2.30;;
77524;SDS011;66638;50.050;21.124;2024-02-23T12:46:37;3.40;;;2.10;;
77524;SDS011;66638;50.050;21.124;2024-02-23T12:49:25;3.30;;;1.90;;
77524;SDS011;66638;50.050;21.124;2024-02-23T12:52:12;3.00;;;1.90;;
77524;SDS011;66638;50.050;21.124;2024-02-23T12:54:59;3.90;;;2.20;;
77524;SDS011;66638;50.050;21.124;2024-02-23T12:57:47;4.40;;;2.50;;
77524;SDS011;66638;50.050;21.124;2024-02-23T13:00:34;3.60;;;2.20;;
77524;SDS011;66638;50.050;21.124;2024-02-23T13:03:22;4.10;;;2.20;;
77524;SDS011;66638;50.050;21.124;2024-02-23T13:06:10;3.70;;;2.00;;
77524;SDS011;66638;50.050;21.124;2024-02-23T13:08:57;3.20;;;2.00;;
77524;SDS011;66638;50.050;21.124;2024-02-23T13:11:47;3.30;;;2.20;;
77524;SDS011;66638;50.050;21.124;2024-02-23T13:14:35;2.90;;;1.80;;
77524;SDS011;66638;50.050;21.124;2024-02-23T13:17:22;2.90;;;1.80;;
77524;SDS011;66638;50.050;21.124;2024-02-23T13:20:09;4.40;;;2.10;;
77524;SDS011;66638;50.050;21.124;2024-02-23T13:22:59;3.60;;;2.10;;
77524;SDS011;66638;50.050;21.124;2024-02-23T13:25:46;3.20;;;2.00;;
77524;SDS011;66638;50.050;21.124;2024-02-23T13:28:33;3.30;;;2.00;;
77524;SDS011;66638;50.050;21.124;2024-02-23T13:31:20;3.70;;;2.30;;
77524;SDS011;66638;50.050;21.124;2024-02-23T13:34:08;3.10;;;1.90;;
77524;SDS011;66638;50.050;21.124;2024-02-23T13:36:56;3.00;;;1.70;;
77524;SDS011;66638;50.050;21.124;2024-02-23T13:39:44;3.10;;;1.60;;
77524;SDS011;66638;50.050;21.124;2024-02-23T13:42:31;3.50;;;2.10;;
77524;SDS011;66638;50.050;21.124;2024-02-23T13:45:19;3.40;;;1.70;;
77524;SDS011;66638;50.050;21.124;2024-02-23T13:48:07;3.90;;;2.00;;
77524;SDS011;66638;50.050;21.124;2024-02-23T13:50:54;3.70;;;1.80;;
77524;SDS011;66638;50.050;21.124;2024-02-23T13:53:41;3.40;;;1.90;;
77524;SDS011;66638;50.050;21.124;2024-02-23T13:56:28;4.20;;;2.00;;
77524;SDS011;66638;50.050;21.124;2024-02-23T14:02:03;3.70;;;1.90;;
77524;SDS011;66638;50.050;21.124;2024-02-23T14:04:50;3.40;;;1.80;;
77524;SDS011;66638;50.050;21.124;2024-02-23T14:07:38;3.10;;;1.80;;
77524;SDS011;66638;50.050;21.124;2024-02-23T14:10:25;3.80;;;2.00;;
77524;SDS011;66638;50.050;21.124;2024-02-23T14:13:13;2.50;;;1.40;;
77524;SDS011;66638;50.050;21.124;2024-02-23T14:16:00;3.20;;;1.70;;
77524;SDS011;66638;50.050;21.124;2024-02-23T14:18:51;2.80;;;1.60;;
77524;SDS011;66638;50.050;21.124;2024-02-23T14:21:38;3.30;;;1.70;;
77524;SDS011;66638;50.050;21.124;2024-02-23T14:24:26;2.80;;;1.80;;
77524;SDS011;66638;50.050;21.124;2024-02-23T14:27:13;3.20;;;1.80;;
77524;SDS011;66638;50.050;21.124;2024-02-23T14:30:00;3.60;;;2.10;;
77524;SDS011;66638;50.050;21.124;2024-02-23T14:32:48;9.30;;;4.80;;
77524;SDS011;66638;50.050;21.124;2024-02-23T14:35:36;11.60;;;5.30;;
77524;SDS011;66638;50.050;21.124;2024-02-23T14:38:23;5.20;;;2.60;;
77524;SDS011;66638;50.050;21.124;2024-02-23T14:41:11;6.20;;;3.40;;
77524;SDS011;66638;50.050;21.124;2024-02-23T14:43:58;4.00;;;2.40;;
77524;SDS011;66638;50.050;21.124;2024-02-23T14:46:45;4.60;;;3.10;;
77524;SDS011;66638;50.050;21.124;2024-02-23T14:49:32;7.60;;;3.90;;
77524;SDS011;66638;50.050;21.124;2024-02-23T14:52:20;5.20;;;3.40;;
77524;SDS011;66638;50.050;21.124;2024-02-23T14:55:07;7.80;;;4.60;;
77524;SDS011;66638;50.050;21.124;2024-02-23T14:57:58;7.00;;;4.30;;
77524;SDS011;66638;50.050;21.124;2024-02-23T15:00:45;5.90;;;3.90;;
77524;SDS011;66638;50.050;21.124;2024-02-23T15:03:34;7.10;;;3.90;;
77524;SDS011;66638;50.050;21.124;2024-02-23T15:09:09;6.80;;;3.60;;
77524;SDS011;66638;50.050;21.124;2024-02-23T15:11:58;5.70;;;3.00;;
77524;SDS011;66638;50.050;21.124;2024-02-23T15:14:47;6.80;;;4.30;;
77524;SDS011;66638;50.050;21.124;2024-02-23T15:17:34;7.70;;;4.10;;
77524;SDS011;66638;50.050;21.124;2024-02-23T15:20:22;5.70;;;3.90;;
77524;SDS011;66638;50.050;21.124;2024-02-23T15:23:09;19.40;;;10.90;;
77524;SDS011;66638;50.050;21.124;2024-02-23T15:25:58;8.00;;;4.80;;
77524;SDS011;66638;50.050;21.124;2024-02-23T15:28:45;8.70;;;4.90;;
77524;SDS011;66638;50.050;21.124;2024-02-23T15:31:33;6.10;;;3.80;;
77524;SDS011;66638;50.050;21.124;2024-02-23T15:34:20;5.80;;;4.20;;
77524;SDS011;66638;50.050;21.124;2024-02-23T15:37:08;6.60;;;4.30;;
77524;SDS011;66638;50.050;21.124;2024-02-23T15:39:54;7.20;;;5.40;;
77524;SDS011;66638;50.050;21.124;2024-02-23T15:42:41;8.10;;;5.40;;
77524;SDS011;66638;50.050;21.124;2024-02-23T15:45:29;8.00;;;5.30;;
77524;SDS011;66638;50.050;21.124;2024-02-23T15:51:03;7.20;;;5.30;;
77524;SDS011;66638;50.050;21.124;2024-02-23T15:53:52;9.40;;;5.30;;
77524;SDS011;66638;50.050;21.124;2024-02-23T15:56:40;24.30;;;16.60;;
77524;SDS011;66638;50.050;21.124;2024-02-23T15:59:27;14.70;;;8.90;;
77524;SDS011;66638;50.050;21.124;2024-02-23T16:02:16;10.80;;;6.40;;
77524;SDS011;66638;50.050;21.124;2024-02-23T16:05:04;7.40;;;5.30;;
77524;SDS011;66638;50.050;21.124;2024-02-23T16:07:54;8.50;;;5.60;;
77524;SDS011;66638;50.050;21.124;2024-02-23T16:10:42;11.70;;;6.90;;
77524;SDS011;66638;50.050;21.124;2024-02-23T16:16:16;13.10;;;7.70;;
77524;SDS011;66638;50.050;21.124;2024-02-23T16:21:51;14.70;;;9.50;;
77524;SDS011;66638;50.050;21.124;2024-02-23T16:27:25;16.80;;;10.30;;
77524;SDS011;66638;50.050;21.124;2024-02-23T16:30:12;12.40;;;8.20;;
77524;SDS011;66638;50.050;21.124;2024-02-23T16:33:00;22.20;;;12.60;;
77524;SDS011;66638;50.050;21.124;2024-02-23T16:35:47;13.40;;;10.10;;
77524;SDS011;66638;50.050;21.124;2024-02-23T16:38:35;10.50;;;6.90;;
77524;SDS011;66638;50.050;21.124;2024-02-23T16:41:23;13.30;;;9.10;;
77524;SDS011;66638;50.050;21.124;2024-02-23T16:44:10;12.60;;;8.10;;
77524;SDS011;66638;50.050;21.124;2024-02-23T16:47:01;9.90;;;7.50;;
77524;SDS011;66638;50.050;21.124;2024-02-23T16:49:49;10.10;;;6.90;;
77524;SDS011;66638;50.050;21.124;2024-02-23T16:52:37;8.60;;;4.80;;
77524;SDS011;66638;50.050;21.124;2024-02-23T16:55:25;9.40;;;6.20;;
77524;SDS011;66638;50.050;21.124;2024-02-23T16:58:13;6.60;;;5.10;;
77524;SDS011;66638;50.050;21.124;2024-02-23T17:01:04;6.40;;;5.20;;
77524;SDS011;66638;50.050;21.124;2024-02-23T17:03:53;7.30;;;5.60;;
77524;SDS011;66638;50.050;21.124;2024-02-23T17:06:40;9.50;;;6.90;;
77524;SDS011;66638;50.050;21.124;2024-02-23T17:09:27;9.70;;;6.90;;
77524;SDS011;66638;50.050;21.124;2024-02-23T17:12:15;7.80;;;6.00;;
77524;SDS011;66638;50.050;21.124;2024-02-23T17:15:08;10.70;;;7.10;;
77524;SDS011;66638;50.050;21.124;2024-02-23T17:17:55;8.00;;;5.20;;
77524;SDS011;66638;50.050;21.124;2024-02-23T17:20:43;8.80;;;5.40;;
77524;SDS011;66638;50.050;21.124;2024-02-23T17:26:49;16.30;;;10.60;;
77524;SDS011;66638;50.050;21.124;2024-02-23T17:29:37;34.40;;;18.80;;
77524;SDS011;66638;50.050;21.124;2024-02-23T17:32:24;21.30;;;12.60;;
77524;SDS011;66638;50.050;21.124;2024-02-23T17:35:11;23.60;;;14.50;;
77524;SDS011;66638;50.050;21.124;2024-02-23T17:37:59;12.20;;;8.90;;
77524;SDS011;66638;50.050;21.124;2024-02-23T17:43:37;9.40;;;6.60;;
77524;SDS011;66638;50.050;21.124;2024-02-23T17:46:24;11.90;;;5.70;;
77524;SDS011;66638;50.050;21.124;2024-02-23T17:49:11;31.60;;;11.80;;
77524;SDS011;66638;50.050;21.124;2024-02-23T17:51:58;23.80;;;10.50;;
77524;SDS011;66638;50.050;21.124;2024-02-23T17:54:46;10.30;;;6.20;;
77524;SDS011;66638;50.050;21.124;2024-02-23T18:00:20;12.70;;;7.30;;
77524;SDS011;66638;50.050;21.124;2024-02-23T18:03:07;62.90;;;31.90;;
77524;SDS011;66638;50.050;21.124;2024-02-23T18:05:55;20.30;;;11.10;;
77524;SDS011;66638;50.050;21.124;2024-02-23T18:08:43;17.30;;;11.00;;